New York — WZH4694 — position and weather

sailwx.info

Track history (hours):
 
Tides and Currents Weather Stations Pressure Air Temp Water Temp Dewpoint Dewpoint Depression Visibility Wind Speed Wind Dir Waves Ship Positions

New York

Owner: UNITED SANDY HOOK PILOTS ASSOC, STATEN ISLAND, NY. More information available from US FCC via Universal Licensing System and Coast Guard Vessel Documentation Center.

Last reported at 2017-Nov-24 03:58 UTC. Time now 2017-Nov-24 05:51 UTC.
Position N 40°26' W 073°48'.

Length 55 m; draft 5 m.

Type: . MMSI: 367008090.

Date/timePositionNaut miles runAvg speedWind from/ knotsBaromVisibWave heightAir tempDewpointWater temp
2017-Nov-24 03:58N 40°26' W 073°48'1 1.2
2017-Nov-24 03:23N 40°27' W 073°49'0 0.9
2017-Nov-24 03:00N 40°27' W 073°48'0 0.6
2017-Nov-24 02:29N 40°27' W 073°49'0 0.6
2017-Nov-24 01:58N 40°27' W 073°49'0 0.6
2017-Nov-24 01:29N 40°27' W 073°50'0 0.6
2017-Nov-24 01:00N 40°27' W 073°50'1 2.6
2017-Nov-24 00:29N 40°26' W 073°49'1 1.7
2017-Nov-24 00:00N 40°26' W 073°49'2 3.3
2017-Nov-23 23:29N 40°27' W 073°50'1 1.4
2017-Nov-23 23:00N 40°27' W 073°51'1 1.2
2017-Nov-23 22:30N 40°27' W 073°50'2 4.4
2017-Nov-23 21:59N 40°27' W 073°47'0 0.5
2017-Nov-23 21:30N 40°27' W 073°47'0 0.6
2017-Nov-23 20:59N 40°27' W 073°48'0 0.6
2017-Nov-23 20:29N 40°27' W 073°48'0 0.6
2017-Nov-23 19:53N 40°27' W 073°49'0 0.6
2017-Nov-23 19:30N 40°27' W 073°49'1 1.3
2017-Nov-23 18:59N 40°26' W 073°48'1 1.5
2017-Nov-23 18:29N 40°27' W 073°49'0 0.8
2017-Nov-23 17:59N 40°27' W 073°50'1 1.4
2017-Nov-23 17:30N 40°28' W 073°50'3 5.0
2017-Nov-23 17:00N 40°26' W 073°48'0 0.5
2017-Nov-23 16:19N 40°26' W 073°48'0 0.7
2017-Nov-23 16:00N 40°26' W 073°48'0 0.7
2017-Nov-23 15:30N 40°27' W 073°48'1 2.7
2017-Nov-23 15:00N 40°27' W 073°50'0 0.5
2017-Nov-23 14:28N 40°27' W 073°50'0 0.6
2017-Nov-23 13:59N 40°27' W 073°50'0 0.9
2017-Nov-23 13:30N 40°27' W 073°50'0 0.9
2017-Nov-23 13:00N 40°27' W 073°50'0 0.3
2017-Nov-23 12:30N 40°27' W 073°50'1 1.4
2017-Nov-23 11:59N 40°28' W 073°49'1 2.3
2017-Nov-23 11:30N 40°27' W 073°50'0 0.7
2017-Nov-23 11:00N 40°27' W 073°51'0 0.5
2017-Nov-23 10:30N 40°27' W 073°51'0 0.6
2017-Nov-23 10:00N 40°28' W 073°51'1 1.5
2017-Nov-23 09:30N 40°28' W 073°52'3 6.5
2017-Nov-23 09:00N 40°26' W 073°48'0 0.9
2017-Nov-23 08:30N 40°26' W 073°49'1 1.1
2017-Nov-23 08:00N 40°27' W 073°49'1 1.2
2017-Nov-23 07:29N 40°27' W 073°49'1 1.8
2017-Nov-23 07:00N 40°27' W 073°48'0 0.8
2017-Nov-23 06:28N 40°26' W 073°48'1 1.1
2017-Nov-23 06:00N 40°26' W 073°49'1 1.7
2017-Nov-23 05:30N 40°26' W 073°50'1 1.2
2017-Nov-23 05:00N 40°26' W 073°50'1 1.2
2017-Nov-23 04:30N 40°27' W 073°50'1 1.0
2017-Nov-23 03:59N 40°27' W 073°50'1 2.3
2017-Nov-23 03:28N 40°26' W 073°50'0 1.0
2017-Nov-23 03:00N 40°27' W 073°50'1 1.1
2017-Nov-23 02:28N 40°27' W 073°50'1 2.0
2017-Nov-23 02:00N 40°27' W 073°49'0 1.0
2017-Nov-23 01:30N 40°27' W 073°49'1 1.1
2017-Nov-23 01:00N 40°28' W 073°50'2 3.7
2017-Nov-23 00:30N 40°26' W 073°49'1 1.1
2017-Nov-22 23:59N 40°26' W 073°50'1 1.4
2017-Nov-22 23:30N 40°27' W 073°50'2 4.6
2017-Nov-22 22:58N 40°26' W 073°47'1 1.4
2017-Nov-22 22:24N 40°26' W 073°48'1 1.7
2017-Nov-22 21:59N 40°27' W 073°49'1 1.8
2017-Nov-22 21:30N 40°27' W 073°50'1 1.9
2017-Nov-22 21:00N 40°27' W 073°49'0 0.5
2017-Nov-22 20:29N 40°27' W 073°48'1 1.2
2017-Nov-22 20:00N 40°26' W 073°49'1 1.8
2017-Nov-22 19:25N 40°27' W 073°50'  
2017-Nov-20 00:29N 40°27' W 073°50'3 4.5
2017-Nov-19 23:54N 40°26' W 073°47'1 2.2
2017-Nov-19 23:30N 40°27' W 073°48'0 0.8
2017-Nov-19 22:58N 40°27' W 073°49'0 0.8
2017-Nov-19 22:28N 40°27' W 073°49'1 1.7
2017-Nov-19 22:00N 40°27' W 073°50'1 1.2
2017-Nov-19 21:30N 40°27' W 073°50'1 1.5
2017-Nov-19 21:00N 40°27' W 073°51'4 6.5
2017-Nov-19 20:28N 40°26' W 073°47'1 0.4
2017-Nov-19 17:34N 40°26' W 073°45'0 2.2
2017-Nov-19 17:29N 40°26' W 073°45'1 2.2
2017-Nov-19 16:57N 40°27' W 073°47'1 2.3
2017-Nov-19 16:28N 40°28' W 073°48'1 2.3
2017-Nov-19 15:59N 40°28' W 073°49'1 1.8
2017-Nov-19 15:30N 40°27' W 073°50'3 6.8
2017-Nov-19 15:00N 40°26' W 073°45'1 1.6
2017-Nov-19 14:27N 40°26' W 073°47'1 2.1
2017-Nov-19 13:54N 40°26' W 073°48'1 2.2
2017-Nov-19 13:30N 40°26' W 073°49'1 1.3
2017-Nov-19 12:59N 40°26' W 073°50'2 3.6
2017-Nov-19 12:30N 40°28' W 073°49'1 1.4
2017-Nov-19 11:59N 40°27' W 073°49'1 1.7
2017-Nov-19 11:30N 40°26' W 073°49'1 2.0
2017-Nov-19 10:59N 40°27' W 073°50'1 1.6
2017-Nov-19 10:29N 40°26' W 073°49'1 1.9
2017-Nov-19 10:00N 40°25' W 073°49'2 3.6
2017-Nov-19 09:30N 40°27' W 073°48'1 1.6
2017-Nov-19 08:54N 40°26' W 073°48'1 1.7
2017-Nov-19 08:22N 40°25' W 073°48'1 2.7
2017-Nov-19 07:57N 40°26' W 073°48'1 2.8
2017-Nov-19 07:30N 40°25' W 073°48'1 1.1
2017-Nov-19 06:59N 40°25' W 073°48'2 3.8
2017-Nov-19 06:29N 40°27' W 073°50'3 5.6
2017-Nov-19 06:00N 40°28' W 073°53'4 7.6
2017-Nov-19 05:30N 40°30' W 073°57'4 9.0
2017-Nov-19 05:00N 40°33' W 074°02'3 4.9
2017-Nov-19 04:30N 40°35' W 074°02'2 4.8
2017-Nov-19 04:00N 40°33' W 074°02'4 8.8
2017-Nov-19 03:30N 40°30' W 073°57'4 8.5
2017-Nov-19 02:59N 40°28' W 073°52'1 2.5
2017-Nov-19 02:30N 40°28' W 073°51'1 1.8
2017-Nov-19 01:58N 40°27' W 073°50'1 1.7
2017-Nov-19 01:27N 40°26' W 073°49'1 1.0
2017-Nov-19 00:57N 40°27' W 073°48'1 3.1
2017-Nov-19 00:30N 40°28' W 073°49'1 1.4
2017-Nov-19 00:00N 40°27' W 073°49'1 2.4
2017-Nov-18 23:25N 40°28' W 073°49'0 0.5
2017-Nov-18 22:58N 40°28' W 073°50'1 2.0
2017-Nov-18 22:30N 40°28' W 073°50'1 1.7
2017-Nov-18 22:00N 40°27' W 073°50'0 0.3
2017-Nov-18 21:30N 40°27' W 073°50'3 5.2
2017-Nov-18 21:00N 40°29' W 073°51'0 0.2
2017-Nov-18 20:30N 40°29' W 073°51'1 2.3
2017-Nov-18 19:59N 40°28' W 073°51'4 6.6
2017-Nov-18 19:27N 40°26' W 073°47'0 0.7
2017-Nov-18 19:00N 40°26' W 073°47'2 3.3
2017-Nov-18 18:29N 40°28' W 073°47'1 1.6
2017-Nov-18 17:58N 40°27' W 073°47'1 1.5
2017-Nov-18 17:30N 40°26' W 073°47'1 1.4
2017-Nov-18 16:53N 40°26' W 073°48'2 6.0
2017-Nov-18 16:30N 40°27' W 073°49'1 1.4
2017-Nov-18 16:00N 40°27' W 073°50'1 2.1
2017-Nov-18 15:30N 40°27' W 073°49'1 1.6
2017-Nov-18 15:00N 40°27' W 073°50'1 1.4
2017-Nov-18 14:30N 40°27' W 073°49'2 3.0
2017-Nov-18 14:00N 40°27' W 073°47'1 1.5
2017-Nov-18 13:29N 40°27' W 073°48'1 1.1
2017-Nov-18 12:59N 40°26' W 073°49'1 2.7
2017-Nov-18 12:30N 40°27' W 073°50'0 0.3
2017-Nov-18 11:59N 40°27' W 073°50'0 0.7
2017-Nov-18 11:29N 40°27' W 073°50'3 5.7
2017-Nov-18 11:00N 40°29' W 073°52'3 6.6
2017-Nov-18 10:30N 40°27' W 073°49'0 0.6
2017-Nov-18 10:00N 40°27' W 073°49'0 0.5
2017-Nov-18 09:29N 40°27' W 073°49'0 0.5
2017-Nov-18 08:57N 40°26' W 073°49'1 1.5
2017-Nov-18 08:30N 40°27' W 073°49'0 0.7
2017-Nov-18 08:00N 40°27' W 073°49'1 2.1
2017-Nov-18 07:29N 40°27' W 073°50'0 0.7
2017-Nov-18 07:00N 40°28' W 073°50'0 0.6
2017-Nov-18 06:30N 40°28' W 073°50'1 2.6
2017-Nov-18 06:00N 40°27' W 073°49'0 1.0
2017-Nov-18 05:30N 40°27' W 073°49'0 1.0
2017-Nov-18 05:00N 40°27' W 073°49'0 0.7
2017-Nov-18 04:30N 40°26' W 073°49'0 0.9
2017-Nov-18 04:00N 40°27' W 073°49'1 1.1
2017-Nov-18 03:30N 40°27' W 073°50'1 1.1
2017-Nov-18 03:00N 40°28' W 073°50'0 1.0
2017-Nov-18 02:30N 40°28' W 073°51'3 5.0
2017-Nov-18 02:00N 40°26' W 073°48'2 3.7
2017-Nov-18 01:30N 40°28' W 073°50'1 1.0
2017-Nov-18 00:59N 40°27' W 073°50'1 1.7
2017-Nov-18 00:30N 40°27' W 073°50'0 0.7
2017-Nov-17 23:58N 40°26' W 073°50'1 1.0
2017-Nov-17 23:20N 40°27' W 073°50'1 4.0
2017-Nov-17 22:58N 40°26' W 073°49'1 1.1
2017-Nov-17 22:25N 40°26' W 073°48'0 1.0
2017-Nov-17 21:59N 40°26' W 073°49'0 0.8
2017-Nov-17 21:27N 40°26' W 073°49'0 1.0
2017-Nov-17 21:00N 40°26' W 073°50'1 1.2
2017-Nov-17 20:29N 40°27' W 073°49'0 0.5
2017-Nov-17 20:00N 40°27' W 073°49'1 1.2
2017-Nov-17 19:28N 40°27' W 073°50'0 1.0
2017-Nov-17 19:00N 40°27' W 073°51'0 0.7
2017-Nov-17 18:30N 40°28' W 073°51'3 5.3
2017-Nov-17 17:56N 40°26' W 073°48'0 1.1
2017-Nov-17 17:29N 40°26' W 073°48'1 1.3
2017-Nov-17 16:59N 40°26' W 073°47'1 1.3
2017-Nov-17 16:26N 40°27' W 073°48'1 1.4
2017-Nov-17 16:00N 40°27' W 073°49'1 1.4
2017-Nov-17 15:30N 40°27' W 073°50'1 1.6
2017-Nov-17 14:59N 40°27' W 073°49'1 1.5
2017-Nov-17 14:30N 40°27' W 073°50'1 1.4
2017-Nov-17 14:00N 40°27' W 073°50'1 1.4
2017-Nov-17 13:29N 40°27' W 073°50'3 6.0
2017-Nov-17 13:00N 40°26' W 073°47'0 1.0
2017-Nov-17 12:30N 40°26' W 073°47'1 1.9
2017-Nov-17 11:55N 40°26' W 073°48'1 1.4
2017-Nov-17 11:30N 40°26' W 073°49'1 1.3
2017-Nov-17 11:00N 40°26' W 073°49'1 1.2
2017-Nov-17 10:30N 40°27' W 073°50'2 3.2
2017-Nov-17 09:59N 40°26' W 073°48'1 2.1
2017-Nov-17 09:29N 40°26' W 073°47'0 0.8
2017-Nov-17 09:00N 40°26' W 073°46'1 1.2
2017-Nov-17 08:26N 40°26' W 073°47'0 1.0
2017-Nov-17 08:00N 40°26' W 073°48'1 1.6
2017-Nov-17 07:28N 40°27' W 073°48'1 1.2
2017-Nov-17 07:00N 40°27' W 073°49'1 1.4
2017-Nov-17 06:29N 40°27' W 073°50'0 0.7
2017-Nov-17 05:59N 40°27' W 073°50'1 1.7
2017-Nov-17 05:30N 40°28' W 073°51'2 3.8
2017-Nov-17 05:00N 40°27' W 073°49'0 0.2
2017-Nov-17 04:28N 40°27' W 073°49'1 1.6
2017-Nov-17 03:59N 40°27' W 073°50'0 0.2
2017-Nov-17 03:30N 40°27' W 073°50'1 1.2
2017-Nov-17 02:59N 40°28' W 073°50'1 1.1
2017-Nov-17 02:29N 40°27' W 073°50'1 1.2
2017-Nov-17 01:59N 40°27' W 073°50'1 1.8
2017-Nov-17 01:30N 40°28' W 073°51'3 4.2
2017-Nov-17 00:54N 40°26' W 073°49'0 0.6
2017-Nov-17 00:12N 40°26' W 073°48'0 1.5
2017-Nov-16 23:57N 40°26' W 073°49'1 1.3
2017-Nov-16 23:27N 40°27' W 073°49'1 1.2
2017-Nov-16 23:00N 40°27' W 073°50'1 1.2
2017-Nov-16 22:25N 40°27' W 073°51'1 2.5
2017-Nov-16 22:00N 40°27' W 073°49'1 1.2
2017-Nov-16 21:30N 40°27' W 073°50'1 2.3
2017-Nov-16 21:00N 40°26' W 073°49'1 1.1
2017-Nov-16 20:30N 40°27' W 073°50'1 2.9
2017-Nov-16 20:00N 40°26' W 073°48'2 3.4
2017-Nov-16 19:24N 40°25' W 073°45'0 0.8
2017-Nov-16 18:59N 40°25' W 073°46'0 0.6
2017-Nov-16 18:25N 40°25' W 073°46'0 0.5
2017-Nov-16 18:00N 40°25' W 073°46'1 2.5
2017-Nov-16 17:29N 40°26' W 073°47'2 3.2
2017-Nov-16 17:00N 40°27' W 073°48'1 1.0
2017-Nov-16 16:30N 40°27' W 073°49'1 1.1
2017-Nov-16 15:58N 40°27' W 073°50'1 1.2
2017-Nov-16 15:28N 40°27' W 073°49'0 0.7
2017-Nov-16 15:01N 40°27' W 073°49'1 2.4
2017-Nov-16 14:28N 40°26' W 073°48'0 0.6
2017-Nov-16 14:00N 40°26' W 073°48'1 1.2
2017-Nov-16 13:11N 40°26' W 073°50'2 7.4
2017-Nov-16 12:58N 40°28' W 073°51'1 1.1
2017-Nov-16 12:21N 40°27' W 073°50'1 1.6
2017-Nov-16 11:58N 40°27' W 073°50'1 2.1
2017-Nov-16 11:29N 40°27' W 073°51'1 3.0
2017-Nov-16 11:00N 40°28' W 073°50'1 0.7
2017-Nov-16 10:17N 40°28' W 073°50'0 1.2
2017-Nov-16 09:59N 40°27' W 073°50'1 1.2
2017-Nov-16 09:29N 40°27' W 073°50'1 1.3
2017-Nov-16 08:59N 40°26' W 073°49'1 1.3
2017-Nov-16 08:30N 40°26' W 073°48'1 1.2
2017-Nov-16 07:40N 40°26' W 073°47'0 1.3
2017-Nov-16 07:24N 40°25' W 073°47'1 1.2
2017-Nov-16 06:54N 40°26' W 073°47'2 5.4
2017-Nov-16 06:28N 40°27' W 073°50'1 2.2
2017-Nov-16 06:00N 40°27' W 073°51'0 0.6
2017-Nov-16 05:30N 40°27' W 073°51'0 0.8
2017-Nov-16 05:00N 40°27' W 073°50'0 0.8
2017-Nov-16 04:30N 40°27' W 073°50'1 1.0
2017-Nov-16 04:00N 40°27' W 073°49'2 4.5
2017-Nov-16 03:30N 40°28' W 073°51'1 2.8
2017-Nov-16 03:00N 40°27' W 073°50'0 0.6
2017-Nov-16 02:30N 40°27' W 073°50'0 0.1
2017-Nov-16 02:00N 40°27' W 073°50'0 0.7
2017-Nov-16 01:30N 40°27' W 073°49'0 0.8
2017-Nov-16 01:00N 40°27' W 073°49'1 1.6
2017-Nov-16 00:30N 40°27' W 073°49'2 3.9
2017-Nov-15 23:59N 40°28' W 073°52'0 0.9
2017-Nov-15 23:29N 40°28' W 073°51'0 0.8
2017-Nov-15 23:00N 40°28' W 073°50'1 1.2
2017-Nov-15 22:25N 40°27' W 073°50'1 3.4
2017-Nov-15 22:00N 40°26' W 073°49'0 0.2
2017-Nov-15 21:30N 40°26' W 073°49'1 0.9
2017-Nov-15 20:50N 40°26' W 073°48'0 0.9
2017-Nov-15 20:29N 40°27' W 073°48'0 1.0
2017-Nov-15 20:00N 40°26' W 073°47'1 2.5
2017-Nov-15 19:30N 40°27' W 073°49'2 3.8
2017-Nov-15 19:00N 40°27' W 073°51'0 0.4
2017-Nov-15 18:30N 40°27' W 073°51'0 0.9
2017-Nov-15 18:00N 40°27' W 073°50'0 0.8
2017-Nov-15 17:30N 40°27' W 073°50'0 0.7
2017-Nov-15 17:00N 40°27' W 073°49'2 3.2
2017-Nov-15 16:30N 40°26' W 073°51'0 0.5
2017-Nov-15 16:00N 40°26' W 073°50'0 0.6
2017-Nov-15 15:30N 40°26' W 073°50'0 0.6
2017-Nov-15 15:00N 40°26' W 073°50'0 0.7
2017-Nov-15 14:29N 40°26' W 073°49'0 0.5
2017-Nov-15 13:55N 40°27' W 073°50'1 1.2
2017-Nov-15 13:30N 40°27' W 073°49'1 1.5
2017-Nov-15 13:00N 40°27' W 073°49'1 1.8
2017-Nov-15 12:30N 40°26' W 073°48'3 6.1
2017-Nov-15 12:00N 40°27' W 073°51'2 3.9
2017-Nov-15 11:29N 40°26' W 073°49'0 1.0
2017-Nov-15 10:59N 40°26' W 073°48'1 2.0
2017-Nov-15 10:28N 40°27' W 073°50'0 1.0
2017-Nov-15 10:00N 40°27' W 073°49'1 1.0
2017-Nov-15 09:27N 40°27' W 073°49'1 2.9
2017-Nov-15 09:00N 40°26' W 073°50'1 2.2
2017-Nov-15 08:30N 40°26' W 073°49'0 0.9
2017-Nov-15 08:00N 40°26' W 073°48'2 4.7
2017-Nov-15 07:30N 40°27' W 073°51'0 0.9
2017-Nov-15 06:59N 40°27' W 073°51'1 1.0
2017-Nov-15 06:30N 40°27' W 073°51'1 1.0
2017-Nov-15 06:00N 40°27' W 073°50'0 0.9
2017-Nov-15 05:30N 40°27' W 073°49'0 0.8
2017-Nov-15 04:59N 40°27' W 073°49'0 0.7
2017-Nov-15 04:27N 40°28' W 073°48'2 4.0
2017-Nov-15 04:00N 40°28' W 073°51'1 1.1
2017-Nov-15 03:29N 40°29' W 073°51'1 2.0
2017-Nov-15 02:59N 40°28' W 073°50'0 0.5
2017-Nov-15 02:29N 40°29' W 073°50'2 4.5
2017-Nov-15 02:00N 40°26' W 073°51'0 0.9
2017-Nov-15 01:29N 40°26' W 073°50'2 3.0
2017-Nov-15 00:59N 40°26' W 073°48'0 0.9
2017-Nov-15 00:29N 40°26' W 073°48'2 3.9
2017-Nov-14 23:58N 40°27' W 073°51'0 0.7
2017-Nov-14 23:30N 40°27' W 073°50'0 0.7
2017-Nov-14 23:00N 40°27' W 073°50'1 1.7
2017-Nov-14 22:29N 40°26' W 073°50'0 0.7
2017-Nov-14 21:57N 40°26' W 073°50'0 0.7
2017-Nov-14 21:30N 40°26' W 073°49'0 0.8
2017-Nov-14 21:00N 40°26' W 073°49'0 0.7
2017-Nov-14 20:27N 40°26' W 073°48'0 0.5
2017-Nov-14 19:53N 40°26' W 073°48'0 0.8
2017-Nov-14 19:15N 40°27' W 073°48'2 6.2
2017-Nov-14 18:58N 40°27' W 073°50'2 3.5
2017-Nov-14 18:24N 40°26' W 073°48'0 0.6
2017-Nov-14 18:00N 40°26' W 073°48'3 6.2
2017-Nov-14 17:30N 40°28' W 073°52'1 1.1
2017-Nov-14 17:00N 40°28' W 073°51'0 0.6
2017-Nov-14 16:28N 40°28' W 073°51'1 1.5
2017-Nov-14 15:50N 40°28' W 073°49'0 0.5
2017-Nov-14 15:19N 40°28' W 073°49'1 3.2
2017-Nov-14 15:00N 40°28' W 073°50'2 3.6
2017-Nov-14 14:21N 40°25' W 073°49'0 0.4
2017-Nov-14 13:59N 40°25' W 073°49'0 0.6
2017-Nov-14 13:26N 40°26' W 073°49'0 0.8
2017-Nov-14 13:00N 40°26' W 073°48'1 2.5
2017-Nov-14 12:30N 40°27' W 073°48'0 0.7
2017-Nov-14 11:59N 40°27' W 073°47'1 3.1
2017-Nov-14 11:30N 40°27' W 073°49'0 0.7
2017-Nov-14 11:00N 40°27' W 073°50'2 3.3
2017-Nov-14 10:30N 40°26' W 073°49'1 1.2
2017-Nov-14 09:59N 40°26' W 073°48'0 0.2
2017-Nov-14 09:25N 40°26' W 073°48'2 4.0
2017-Nov-14 09:00N 40°27' W 073°50'2 2.6
2017-Nov-14 08:19N 40°26' W 073°48'0 1.2
2017-Nov-14 08:00N 40°27' W 073°48'3 5.5
2017-Nov-14 07:30N 40°26' W 073°51'0 0.8
2017-Nov-14 07:00N 40°27' W 073°51'0 1.0
2017-Nov-14 06:30N 40°27' W 073°50'0 0.8
2017-Nov-14 05:59N 40°27' W 073°50'0 0.8
2017-Nov-14 05:30N 40°27' W 073°50'0 0.9
2017-Nov-14 05:00N 40°28' W 073°49'1 2.6
2017-Nov-14 04:30N 40°28' W 073°51'2 3.1
2017-Nov-14 04:00N 40°29' W 073°53'  
Track history (hours):
 
Tides and Currents Weather Stations Pressure Air Temp Water Temp Dewpoint Dewpoint Depression Visibility Wind Speed Wind Dir Waves Ship Positions

New York

Owner: UNITED SANDY HOOK PILOTS ASSOC, STATEN ISLAND, NY. More information available from US FCC via Universal Licensing System and Coast Guard Vessel Documentation Center.

Last reported at 2017-Nov-24 03:58 UTC. Time now 2017-Nov-24 05:51 UTC.
Position N 40°26' W 073°48'.

Length 55 m; draft 5 m.

Type: . MMSI: 367008090.

Date/timePositionNaut miles runAvg speedWind from/ knotsBaromVisibWave heightAir tempDewpointWater temp
2017-Nov-24 03:58N 40°26' W 073°48'1 1.2
2017-Nov-24 03:23N 40°27' W 073°49'0 0.9
2017-Nov-24 03:00N 40°27' W 073°48'0 0.6
2017-Nov-24 02:29N 40°27' W 073°49'0 0.6
2017-Nov-24 01:58N 40°27' W 073°49'0 0.6
2017-Nov-24 01:29N 40°27' W 073°50'0 0.6
2017-Nov-24 01:00N 40°27' W 073°50'1 2.6
2017-Nov-24 00:29N 40°26' W 073°49'1 1.7
2017-Nov-24 00:00N 40°26' W 073°49'2 3.3
2017-Nov-23 23:29N 40°27' W 073°50'1 1.4
2017-Nov-23 23:00N 40°27' W 073°51'1 1.2
2017-Nov-23 22:30N 40°27' W 073°50'2 4.4
2017-Nov-23 21:59N 40°27' W 073°47'0 0.5
2017-Nov-23 21:30N 40°27' W 073°47'0 0.6
2017-Nov-23 20:59N 40°27' W 073°48'0 0.6
2017-Nov-23 20:29N 40°27' W 073°48'0 0.6
2017-Nov-23 19:53N 40°27' W 073°49'0 0.6
2017-Nov-23 19:30N 40°27' W 073°49'1 1.3
2017-Nov-23 18:59N 40°26' W 073°48'1 1.5
2017-Nov-23 18:29N 40°27' W 073°49'0 0.8
2017-Nov-23 17:59N 40°27' W 073°50'1 1.4
2017-Nov-23 17:30N 40°28' W 073°50'3 5.0
2017-Nov-23 17:00N 40°26' W 073°48'0 0.5
2017-Nov-23 16:19N 40°26' W 073°48'0 0.7
2017-Nov-23 16:00N 40°26' W 073°48'0 0.7
2017-Nov-23 15:30N 40°27' W 073°48'1 2.7
2017-Nov-23 15:00N 40°27' W 073°50'0 0.5
2017-Nov-23 14:28N 40°27' W 073°50'0 0.6
2017-Nov-23 13:59N 40°27' W 073°50'0 0.9
2017-Nov-23 13:30N 40°27' W 073°50'0 0.9
2017-Nov-23 13:00N 40°27' W 073°50'0 0.3
2017-Nov-23 12:30N 40°27' W 073°50'1 1.4
2017-Nov-23 11:59N 40°28' W 073°49'1 2.3
2017-Nov-23 11:30N 40°27' W 073°50'0 0.7
2017-Nov-23 11:00N 40°27' W 073°51'0 0.5
2017-Nov-23 10:30N 40°27' W 073°51'0 0.6
2017-Nov-23 10:00N 40°28' W 073°51'1 1.5
2017-Nov-23 09:30N 40°28' W 073°52'3 6.5
2017-Nov-23 09:00N 40°26' W 073°48'0 0.9
2017-Nov-23 08:30N 40°26' W 073°49'1 1.1
2017-Nov-23 08:00N 40°27' W 073°49'1 1.2
2017-Nov-23 07:29N 40°27' W 073°49'1 1.8
2017-Nov-23 07:00N 40°27' W 073°48'0 0.8
2017-Nov-23 06:28N 40°26' W 073°48'1 1.1
2017-Nov-23 06:00N 40°26' W 073°49'1 1.7
2017-Nov-23 05:30N 40°26' W 073°50'1 1.2
2017-Nov-23 05:00N 40°26' W 073°50'1 1.2
2017-Nov-23 04:30N 40°27' W 073°50'1 1.0
2017-Nov-23 03:59N 40°27' W 073°50'1 2.3
2017-Nov-23 03:28N 40°26' W 073°50'0 1.0
2017-Nov-23 03:00N 40°27' W 073°50'1 1.1
2017-Nov-23 02:28N 40°27' W 073°50'1 2.0
2017-Nov-23 02:00N 40°27' W 073°49'0 1.0
2017-Nov-23 01:30N 40°27' W 073°49'1 1.1
2017-Nov-23 01:00N 40°28' W 073°50'2 3.7
2017-Nov-23 00:30N 40°26' W 073°49'1 1.1
2017-Nov-22 23:59N 40°26' W 073°50'1 1.4
2017-Nov-22 23:30N 40°27' W 073°50'2 4.6
2017-Nov-22 22:58N 40°26' W 073°47'1 1.4
2017-Nov-22 22:24N 40°26' W 073°48'1 1.7
2017-Nov-22 21:59N 40°27' W 073°49'1 1.8
2017-Nov-22 21:30N 40°27' W 073°50'1 1.9
2017-Nov-22 21:00N 40°27' W 073°49'0 0.5
2017-Nov-22 20:29N 40°27' W 073°48'1 1.2
2017-Nov-22 20:00N 40°26' W 073°49'1 1.8
2017-Nov-22 19:25N 40°27' W 073°50'  
2017-Nov-20 00:29N 40°27' W 073°50'3 4.5
2017-Nov-19 23:54N 40°26' W 073°47'1 2.2
2017-Nov-19 23:30N 40°27' W 073°48'0 0.8
2017-Nov-19 22:58N 40°27' W 073°49'0 0.8
2017-Nov-19 22:28N 40°27' W 073°49'1 1.7
2017-Nov-19 22:00N 40°27' W 073°50'1 1.2
2017-Nov-19 21:30N 40°27' W 073°50'1 1.5
2017-Nov-19 21:00N 40°27' W 073°51'4 6.5
2017-Nov-19 20:28N 40°26' W 073°47'1 0.4
2017-Nov-19 17:34N 40°26' W 073°45'0 2.2
2017-Nov-19 17:29N 40°26' W 073°45'1 2.2
2017-Nov-19 16:57N 40°27' W 073°47'1 2.3
2017-Nov-19 16:28N 40°28' W 073°48'1 2.3
2017-Nov-19 15:59N 40°28' W 073°49'1 1.8
2017-Nov-19 15:30N 40°27' W 073°50'3 6.8
2017-Nov-19 15:00N 40°26' W 073°45'1 1.6
2017-Nov-19 14:27N 40°26' W 073°47'1 2.1
2017-Nov-19 13:54N 40°26' W 073°48'1 2.2
2017-Nov-19 13:30N 40°26' W 073°49'1 1.3
2017-Nov-19 12:59N 40°26' W 073°50'2 3.6
2017-Nov-19 12:30N 40°28' W 073°49'1 1.4
2017-Nov-19 11:59N 40°27' W 073°49'1 1.7
2017-Nov-19 11:30N 40°26' W 073°49'1 2.0
2017-Nov-19 10:59N 40°27' W 073°50'1 1.6
2017-Nov-19 10:29N 40°26' W 073°49'1 1.9
2017-Nov-19 10:00N 40°25' W 073°49'2 3.6
2017-Nov-19 09:30N 40°27' W 073°48'1 1.6
2017-Nov-19 08:54N 40°26' W 073°48'1 1.7
2017-Nov-19 08:22N 40°25' W 073°48'1 2.7
2017-Nov-19 07:57N 40°26' W 073°48'1 2.8
2017-Nov-19 07:30N 40°25' W 073°48'1 1.1
2017-Nov-19 06:59N 40°25' W 073°48'2 3.8
2017-Nov-19 06:29N 40°27' W 073°50'3 5.6
2017-Nov-19 06:00N 40°28' W 073°53'4 7.6
2017-Nov-19 05:30N 40°30' W 073°57'4 9.0
2017-Nov-19 05:00N 40°33' W 074°02'3 4.9
2017-Nov-19 04:30N 40°35' W 074°02'2 4.8
2017-Nov-19 04:00N 40°33' W 074°02'4 8.8
2017-Nov-19 03:30N 40°30' W 073°57'4 8.5
2017-Nov-19 02:59N 40°28' W 073°52'1 2.5
2017-Nov-19 02:30N 40°28' W 073°51'1 1.8
2017-Nov-19 01:58N 40°27' W 073°50'1 1.7
2017-Nov-19 01:27N 40°26' W 073°49'1 1.0
2017-Nov-19 00:57N 40°27' W 073°48'1 3.1
2017-Nov-19 00:30N 40°28' W 073°49'1 1.4
2017-Nov-19 00:00N 40°27' W 073°49'1 2.4
2017-Nov-18 23:25N 40°28' W 073°49'0 0.5
2017-Nov-18 22:58N 40°28' W 073°50'1 2.0
2017-Nov-18 22:30N 40°28' W 073°50'1 1.7
2017-Nov-18 22:00N 40°27' W 073°50'0 0.3
2017-Nov-18 21:30N 40°27' W 073°50'3 5.2
2017-Nov-18 21:00N 40°29' W 073°51'0 0.2
2017-Nov-18 20:30N 40°29' W 073°51'1 2.3
2017-Nov-18 19:59N 40°28' W 073°51'4 6.6
2017-Nov-18 19:27N 40°26' W 073°47'0 0.7
2017-Nov-18 19:00N 40°26' W 073°47'2 3.3
2017-Nov-18 18:29N 40°28' W 073°47'1 1.6
2017-Nov-18 17:58N 40°27' W 073°47'1 1.5
2017-Nov-18 17:30N 40°26' W 073°47'1 1.4
2017-Nov-18 16:53N 40°26' W 073°48'2 6.0
2017-Nov-18 16:30N 40°27' W 073°49'1 1.4
2017-Nov-18 16:00N 40°27' W 073°50'1 2.1
2017-Nov-18 15:30N 40°27' W 073°49'1 1.6
2017-Nov-18 15:00N 40°27' W 073°50'1 1.4
2017-Nov-18 14:30N 40°27' W 073°49'2 3.0
2017-Nov-18 14:00N 40°27' W 073°47'1 1.5
2017-Nov-18 13:29N 40°27' W 073°48'1 1.1
2017-Nov-18 12:59N 40°26' W 073°49'1 2.7
2017-Nov-18 12:30N 40°27' W 073°50'0 0.3
2017-Nov-18 11:59N 40°27' W 073°50'0 0.7
2017-Nov-18 11:29N 40°27' W 073°50'3 5.7
2017-Nov-18 11:00N 40°29' W 073°52'3 6.6
2017-Nov-18 10:30N 40°27' W 073°49'0 0.6
2017-Nov-18 10:00N 40°27' W 073°49'0 0.5
2017-Nov-18 09:29N 40°27' W 073°49'0 0.5
2017-Nov-18 08:57N 40°26' W 073°49'1 1.5
2017-Nov-18 08:30N 40°27' W 073°49'0 0.7
2017-Nov-18 08:00N 40°27' W 073°49'1 2.1
2017-Nov-18 07:29N 40°27' W 073°50'0 0.7
2017-Nov-18 07:00N 40°28' W 073°50'0 0.6
2017-Nov-18 06:30N 40°28' W 073°50'1 2.6
2017-Nov-18 06:00N 40°27' W 073°49'0 1.0
2017-Nov-18 05:30N 40°27' W 073°49'0 1.0
2017-Nov-18 05:00N 40°27' W 073°49'0 0.7
2017-Nov-18 04:30N 40°26' W 073°49'0 0.9
2017-Nov-18 04:00N 40°27' W 073°49'1 1.1
2017-Nov-18 03:30N 40°27' W 073°50'1 1.1
2017-Nov-18 03:00N 40°28' W 073°50'0 1.0
2017-Nov-18 02:30N 40°28' W 073°51'3 5.0
2017-Nov-18 02:00N 40°26' W 073°48'2 3.7
2017-Nov-18 01:30N 40°28' W 073°50'1 1.0
2017-Nov-18 00:59N 40°27' W 073°50'1 1.7
2017-Nov-18 00:30N 40°27' W 073°50'0 0.7
2017-Nov-17 23:58N 40°26' W 073°50'1 1.0
2017-Nov-17 23:20N 40°27' W 073°50'1 4.0
2017-Nov-17 22:58N 40°26' W 073°49'1 1.1
2017-Nov-17 22:25N 40°26' W 073°48'0 1.0
2017-Nov-17 21:59N 40°26' W 073°49'0 0.8
2017-Nov-17 21:27N 40°26' W 073°49'0 1.0
2017-Nov-17 21:00N 40°26' W 073°50'1 1.2
2017-Nov-17 20:29N 40°27' W 073°49'0 0.5
2017-Nov-17 20:00N 40°27' W 073°49'1 1.2
2017-Nov-17 19:28N 40°27' W 073°50'0 1.0
2017-Nov-17 19:00N 40°27' W 073°51'0 0.7
2017-Nov-17 18:30N 40°28' W 073°51'3 5.3
2017-Nov-17 17:56N 40°26' W 073°48'0 1.1
2017-Nov-17 17:29N 40°26' W 073°48'1 1.3
2017-Nov-17 16:59N 40°26' W 073°47'1 1.3
2017-Nov-17 16:26N 40°27' W 073°48'1 1.4
2017-Nov-17 16:00N 40°27' W 073°49'1 1.4
2017-Nov-17 15:30N 40°27' W 073°50'1 1.6
2017-Nov-17 14:59N 40°27' W 073°49'1 1.5
2017-Nov-17 14:30N 40°27' W 073°50'1 1.4
2017-Nov-17 14:00N 40°27' W 073°50'1 1.4
2017-Nov-17 13:29N 40°27' W 073°50'3 6.0
2017-Nov-17 13:00N 40°26' W 073°47'0 1.0
2017-Nov-17 12:30N 40°26' W 073°47'1 1.9
2017-Nov-17 11:55N 40°26' W 073°48'1 1.4
2017-Nov-17 11:30N 40°26' W 073°49'1 1.3
2017-Nov-17 11:00N 40°26' W 073°49'1 1.2
2017-Nov-17 10:30N 40°27' W 073°50'2 3.2
2017-Nov-17 09:59N 40°26' W 073°48'1 2.1
2017-Nov-17 09:29N 40°26' W 073°47'0 0.8
2017-Nov-17 09:00N 40°26' W 073°46'1 1.2
2017-Nov-17 08:26N 40°26' W 073°47'0 1.0
2017-Nov-17 08:00N 40°26' W 073°48'1 1.6
2017-Nov-17 07:28N 40°27' W 073°48'1 1.2
2017-Nov-17 07:00N 40°27' W 073°49'1 1.4
2017-Nov-17 06:29N 40°27' W 073°50'0 0.7
2017-Nov-17 05:59N 40°27' W 073°50'1 1.7
2017-Nov-17 05:30N 40°28' W 073°51'2 3.8
2017-Nov-17 05:00N 40°27' W 073°49'0 0.2
2017-Nov-17 04:28N 40°27' W 073°49'1 1.6
2017-Nov-17 03:59N 40°27' W 073°50'0 0.2
2017-Nov-17 03:30N 40°27' W 073°50'1 1.2
2017-Nov-17 02:59N 40°28' W 073°50'1 1.1
2017-Nov-17 02:29N 40°27' W 073°50'1 1.2
2017-Nov-17 01:59N 40°27' W 073°50'1 1.8
2017-Nov-17 01:30N 40°28' W 073°51'3 4.2
2017-Nov-17 00:54N 40°26' W 073°49'0 0.6
2017-Nov-17 00:12N 40°26' W 073°48'0 1.5
2017-Nov-16 23:57N 40°26' W 073°49'1 1.3
2017-Nov-16 23:27N 40°27' W 073°49'1 1.2
2017-Nov-16 23:00N 40°27' W 073°50'1 1.2
2017-Nov-16 22:25N 40°27' W 073°51'1 2.5
2017-Nov-16 22:00N 40°27' W 073°49'1 1.2
2017-Nov-16 21:30N 40°27' W 073°50'1 2.3
2017-Nov-16 21:00N 40°26' W 073°49'1 1.1
2017-Nov-16 20:30N 40°27' W 073°50'1 2.9
2017-Nov-16 20:00N 40°26' W 073°48'2 3.4
2017-Nov-16 19:24N 40°25' W 073°45'0 0.8
2017-Nov-16 18:59N 40°25' W 073°46'0 0.6
2017-Nov-16 18:25N 40°25' W 073°46'0 0.5
2017-Nov-16 18:00N 40°25' W 073°46'1 2.5
2017-Nov-16 17:29N 40°26' W 073°47'2 3.2
2017-Nov-16 17:00N 40°27' W 073°48'1 1.0
2017-Nov-16 16:30N 40°27' W 073°49'1 1.1
2017-Nov-16 15:58N 40°27' W 073°50'1 1.2
2017-Nov-16 15:28N 40°27' W 073°49'0 0.7
2017-Nov-16 15:01N 40°27' W 073°49'1 2.4
2017-Nov-16 14:28N 40°26' W 073°48'0 0.6
2017-Nov-16 14:00N 40°26' W 073°48'1 1.2
2017-Nov-16 13:11N 40°26' W 073°50'2 7.4
2017-Nov-16 12:58N 40°28' W 073°51'1 1.1
2017-Nov-16 12:21N 40°27' W 073°50'1 1.6
2017-Nov-16 11:58N 40°27' W 073°50'1 2.1
2017-Nov-16 11:29N 40°27' W 073°51'1 3.0
2017-Nov-16 11:00N 40°28' W 073°50'1 0.7
2017-Nov-16 10:17N 40°28' W 073°50'0 1.2
2017-Nov-16 09:59N 40°27' W 073°50'1 1.2
2017-Nov-16 09:29N 40°27' W 073°50'1 1.3
2017-Nov-16 08:59N 40°26' W 073°49'1 1.3
2017-Nov-16 08:30N 40°26' W 073°48'1 1.2
2017-Nov-16 07:40N 40°26' W 073°47'0 1.3
2017-Nov-16 07:24N 40°25' W 073°47'1 1.2
2017-Nov-16 06:54N 40°26' W 073°47'2 5.4
2017-Nov-16 06:28N 40°27' W 073°50'1 2.2
2017-Nov-16 06:00N 40°27' W 073°51'0 0.6
2017-Nov-16 05:30N 40°27' W 073°51'0 0.8
2017-Nov-16 05:00N 40°27' W 073°50'0 0.8
2017-Nov-16 04:30N 40°27' W 073°50'1 1.0
2017-Nov-16 04:00N 40°27' W 073°49'2 4.5
2017-Nov-16 03:30N 40°28' W 073°51'1 2.8
2017-Nov-16 03:00N 40°27' W 073°50'0 0.6
2017-Nov-16 02:30N 40°27' W 073°50'0 0.1
2017-Nov-16 02:00N 40°27' W 073°50'0 0.7
2017-Nov-16 01:30N 40°27' W 073°49'0 0.8
2017-Nov-16 01:00N 40°27' W 073°49'1 1.6
2017-Nov-16 00:30N 40°27' W 073°49'2 3.9
2017-Nov-15 23:59N 40°28' W 073°52'0 0.9
2017-Nov-15 23:29N 40°28' W 073°51'0 0.8
2017-Nov-15 23:00N 40°28' W 073°50'1 1.2
2017-Nov-15 22:25N 40°27' W 073°50'1 3.4
2017-Nov-15 22:00N 40°26' W 073°49'0 0.2
2017-Nov-15 21:30N 40°26' W 073°49'1 0.9
2017-Nov-15 20:50N 40°26' W 073°48'0 0.9
2017-Nov-15 20:29N 40°27' W 073°48'0 1.0
2017-Nov-15 20:00N 40°26' W 073°47'1 2.5
2017-Nov-15 19:30N 40°27' W 073°49'2 3.8
2017-Nov-15 19:00N 40°27' W 073°51'0 0.4
2017-Nov-15 18:30N 40°27' W 073°51'0 0.9
2017-Nov-15 18:00N 40°27' W 073°50'0 0.8
2017-Nov-15 17:30N 40°27' W 073°50'0 0.7
2017-Nov-15 17:00N 40°27' W 073°49'2 3.2
2017-Nov-15 16:30N 40°26' W 073°51'0 0.5
2017-Nov-15 16:00N 40°26' W 073°50'0 0.6
2017-Nov-15 15:30N 40°26' W 073°50'0 0.6
2017-Nov-15 15:00N 40°26' W 073°50'0 0.7
2017-Nov-15 14:29N 40°26' W 073°49'0 0.5
2017-Nov-15 13:55N 40°27' W 073°50'1 1.2
2017-Nov-15 13:30N 40°27' W 073°49'1 1.5
2017-Nov-15 13:00N 40°27' W 073°49'1 1.8
2017-Nov-15 12:30N 40°26' W 073°48'3 6.1
2017-Nov-15 12:00N 40°27' W 073°51'2 3.9
2017-Nov-15 11:29N 40°26' W 073°49'0 1.0
2017-Nov-15 10:59N 40°26' W 073°48'1 2.0
2017-Nov-15 10:28N 40°27' W 073°50'0 1.0
2017-Nov-15 10:00N 40°27' W 073°49'1 1.0
2017-Nov-15 09:27N 40°27' W 073°49'1 2.9
2017-Nov-15 09:00N 40°26' W 073°50'1 2.2
2017-Nov-15 08:30N 40°26' W 073°49'0 0.9
2017-Nov-15 08:00N 40°26' W 073°48'2 4.7
2017-Nov-15 07:30N 40°27' W 073°51'0 0.9
2017-Nov-15 06:59N 40°27' W 073°51'1 1.0
2017-Nov-15 06:30N 40°27' W 073°51'1 1.0
2017-Nov-15 06:00N 40°27' W 073°50'0 0.9
2017-Nov-15 05:30N 40°27' W 073°49'0 0.8
2017-Nov-15 04:59N 40°27' W 073°49'0 0.7
2017-Nov-15 04:27N 40°28' W 073°48'2 4.0
2017-Nov-15 04:00N 40°28' W 073°51'1 1.1
2017-Nov-15 03:29N 40°29' W 073°51'1 2.0
2017-Nov-15 02:59N 40°28' W 073°50'0 0.5
2017-Nov-15 02:29N 40°29' W 073°50'2 4.5
2017-Nov-15 02:00N 40°26' W 073°51'0 0.9
2017-Nov-15 01:29N 40°26' W 073°50'2 3.0
2017-Nov-15 00:59N 40°26' W 073°48'0 0.9
2017-Nov-15 00:29N 40°26' W 073°48'2 3.9
2017-Nov-14 23:58N 40°27' W 073°51'0 0.7
2017-Nov-14 23:30N 40°27' W 073°50'0 0.7
2017-Nov-14 23:00N 40°27' W 073°50'1 1.7
2017-Nov-14 22:29N 40°26' W 073°50'0 0.7
2017-Nov-14 21:57N 40°26' W 073°50'0 0.7
2017-Nov-14 21:30N 40°26' W 073°49'0 0.8
2017-Nov-14 21:00N 40°26' W 073°49'0 0.7
2017-Nov-14 20:27N 40°26' W 073°48'0 0.5
2017-Nov-14 19:53N 40°26' W 073°48'0 0.8
2017-Nov-14 19:15N 40°27' W 073°48'2 6.2
2017-Nov-14 18:58N 40°27' W 073°50'2 3.5
2017-Nov-14 18:24N 40°26' W 073°48'0 0.6
2017-Nov-14 18:00N 40°26' W 073°48'3 6.2
2017-Nov-14 17:30N 40°28' W 073°52'1 1.1
2017-Nov-14 17:00N 40°28' W 073°51'0 0.6
2017-Nov-14 16:28N 40°28' W 073°51'1 1.5
2017-Nov-14 15:50N 40°28' W 073°49'0 0.5
2017-Nov-14 15:19N 40°28' W 073°49'1 3.2
2017-Nov-14 15:00N 40°28' W 073°50'2 3.6
2017-Nov-14 14:21N 40°25' W 073°49'0 0.4
2017-Nov-14 13:59N 40°25' W 073°49'0 0.6
2017-Nov-14 13:26N 40°26' W 073°49'0 0.8
2017-Nov-14 13:00N 40°26' W 073°48'1 2.5
2017-Nov-14 12:30N 40°27' W 073°48'0 0.7
2017-Nov-14 11:59N 40°27' W 073°47'1 3.1
2017-Nov-14 11:30N 40°27' W 073°49'0 0.7
2017-Nov-14 11:00N 40°27' W 073°50'2 3.3
2017-Nov-14 10:30N 40°26' W 073°49'1 1.2
2017-Nov-14 09:59N 40°26' W 073°48'0 0.2
2017-Nov-14 09:25N 40°26' W 073°48'2 4.0
2017-Nov-14 09:00N 40°27' W 073°50'2 2.6
2017-Nov-14 08:19N 40°26' W 073°48'0 1.2
2017-Nov-14 08:00N 40°27' W 073°48'3 5.5
2017-Nov-14 07:30N 40°26' W 073°51'0 0.8
2017-Nov-14 07:00N 40°27' W 073°51'0 1.0
2017-Nov-14 06:30N 40°27' W 073°50'0 0.8
2017-Nov-14 05:59N 40°27' W 073°50'0 0.8
2017-Nov-14 05:30N 40°27' W 073°50'0 0.9
2017-Nov-14 05:00N 40°28' W 073°49'1 2.6
2017-Nov-14 04:30N 40°28' W 073°51'2 3.1
2017-Nov-14 04:00N 40°29' W 073°53'  

Dump ship's entire track history